Los Angeles, CA

7:23 AM PST on December 05, 2016 (GMT -0800)
El Segundo | | Change Station
Active Advisory: Dense Fog Advisory

Elev 150 ft 33.93 °N, 118.41 °W | Updated 8 minutes ago

Clear
Clear
53.4 °F
Feels Like 53.4 °F
N
0.0
Wind Variable Wind from NE
Gusts 1.0 mph

Today
High -- | Low -- °F
--% Chance of Precip.
Yesterday
High -- | Low -- °F
Precip. -- in
Pressure 29.96 in
Visibility 10.0 miles
Clouds Clear
Dew Point 52.0 °F
Humidity 95%
Rainfall 0.00 in
Snow Depth Not available.
6:44 AM 4:43 PM
Waxing Crescent, 32% visible
METAR KCQT 051447Z AUTO 00000KT 10SM CLR 08/04 A2996 RMK AO2 SLP146 T00830039 53007
Pressure 29.96 in
Visibility 10.0 miles
Clouds Clear
Dew Point 52.0 °F
Humidity 95%
Rainfall 0.00 in
Snow Depth Not available.
6:44 AM 4:43 PM
Waxing Crescent, 32% visible
METAR KCQT 051447Z AUTO 00000KT 10SM CLR 08/04 A2996 RMK AO2 SLP146 T00830039 53007

10-Day Weather Forecast

Almanac

Astronomy

Dec. 05, 2016 Rise Set
Actual Time
Civil Twilight
Nautical Twilight
Astronomical Twilight
Moon
Length of Visible Light
Length of Day
Tomorrow will be .
, % of the Moon is Illuminated

Today's Extremes

State Highs State Lows

Community

WunderPhotos

Upload Photos

1,955,789 photos uploaded!

WunderBlog® & News

Nearby

Air Quality

  Air Quality AQ Index Pollutant
Not available.

Snow Depth

Station Depth Elevation

Earthquake Activity

City Distance Mag. Time & Date
Minimum magnitude displayed is 2.5.

Coastal Water Temperatures

Place Temperature

Stations

Nearby Weather Stations

Station Location Temp. Windchill Dew Point Humidity Wind Precip. Elev Updated Type
                   

Watches & Warnings

Dense Fog Advisory
Issued: 3:41 AM PST Dec. 5, 2016 – National Weather Service

... Dense fog advisory in effect until 9 am PST this morning...

The National Weather Service in Los Angeles/Oxnard has issued a
dense fog advisory... which is in effect until 9 am PST this
morning.

* Visibility... one quarter mile to near zero.

* Impacts... driving will be very hazardous with near zero
visibilities on all freeways and surface streets across coastal
l.A. County.

Precautionary/preparedness actions...

When driving... reduce speeds and increase following distance. Use
low beam headlights... and allow extra time to reach your
destination.



Rorke